sensor_id;sensor_type;location;lat;lon;timestamp;pressure;altitude;pressure_sealevel;temperature;humidity
35553;BME280;21656;46.054;13.614;2023-02-28T00:02:22;101210.84;;;3.58;63.70
35553;BME280;21656;46.054;13.614;2023-02-28T00:04:47;101219.84;;;3.54;63.86
35553;BME280;21656;46.054;13.614;2023-02-28T00:07:18;101218.13;;;3.53;63.45
35553;BME280;21656;46.054;13.614;2023-02-28T00:09:43;101225.25;;;3.53;64.07
35553;BME280;21656;46.054;13.614;2023-02-28T00:12:08;101201.13;;;3.57;63.86
35553;BME280;21656;46.054;13.614;2023-02-28T00:14:35;101219.69;;;3.59;63.84
35553;BME280;21656;46.054;13.614;2023-02-28T00:17:00;101216.34;;;3.54;63.67
35553;BME280;21656;46.054;13.614;2023-02-28T00:19:26;101217.28;;;3.53;62.41
35553;BME280;21656;46.054;13.614;2023-02-28T00:21:51;101221.63;;;3.55;63.83
35553;BME280;21656;46.054;13.614;2023-02-28T00:24:16;101225.09;;;3.57;63.17
35553;BME280;21656;46.054;13.614;2023-02-28T00:26:41;101221.44;;;3.60;63.18
35553;BME280;21656;46.054;13.614;2023-02-28T00:29:13;101219.13;;;3.51;63.09
35553;BME280;21656;46.054;13.614;2023-02-28T00:31:38;101212.84;;;3.52;63.22
35553;BME280;21656;46.054;13.614;2023-02-28T00:34:03;101243.78;;;3.56;63.50
35553;BME280;21656;46.054;13.614;2023-02-28T00:36:28;101223.28;;;3.58;62.61
35553;BME280;21656;46.054;13.614;2023-02-28T00:38:53;101237.44;;;3.60;62.47
35553;BME280;21656;46.054;13.614;2023-02-28T00:41:19;101243.03;;;3.52;62.12
35553;BME280;21656;46.054;13.614;2023-02-28T00:43:44;101230.34;;;3.59;62.14
35553;BME280;21656;46.054;13.614;2023-02-28T00:46:09;101247.38;;;3.55;62.67
35553;BME280;21656;46.054;13.614;2023-02-28T00:48:35;101244.78;;;3.53;62.25
35553;BME280;21656;46.054;13.614;2023-02-28T00:51:00;101251.66;;;3.59;62.30
35553;BME280;21656;46.054;13.614;2023-02-28T00:53:26;101238.84;;;3.68;62.34
35553;BME280;21656;46.054;13.614;2023-02-28T00:55:51;101239.41;;;3.55;61.76
35553;BME280;21656;46.054;13.614;2023-02-28T00:58:17;101230.59;;;3.53;61.69
35553;BME280;21656;46.054;13.614;2023-02-28T01:00:42;101246.41;;;3.57;61.48
35553;BME280;21656;46.054;13.614;2023-02-28T01:03:07;101251.81;;;3.54;61.33
35553;BME280;21656;46.054;13.614;2023-02-28T01:05:32;101234.81;;;3.58;61.23
35553;BME280;21656;46.054;13.614;2023-02-28T01:07:58;101246.41;;;3.57;61.42
35553;BME280;21656;46.054;13.614;2023-02-28T01:10:23;101251.47;;;3.63;61.33
35553;BME280;21656;46.054;13.614;2023-02-28T01:12:49;101251.53;;;3.62;61.21
35553;BME280;21656;46.054;13.614;2023-02-28T01:15:15;101254.78;;;3.70;61.28
35553;BME280;21656;46.054;13.614;2023-02-28T01:17:40;101248.69;;;3.66;60.87
35553;BME280;21656;46.054;13.614;2023-02-28T01:20:05;101242.63;;;3.63;60.32
35553;BME280;21656;46.054;13.614;2023-02-28T01:22:31;101252.47;;;3.61;61.09
35553;BME280;21656;46.054;13.614;2023-02-28T01:24:56;101259.47;;;3.63;60.20
35553;BME280;21656;46.054;13.614;2023-02-28T01:27:21;101265.25;;;3.75;60.82
35553;BME280;21656;46.054;13.614;2023-02-28T01:29:46;101254.78;;;3.70;60.12
35553;BME280;21656;46.054;13.614;2023-02-28T01:32:12;101252.97;;;3.71;60.42
35553;BME280;21656;46.054;13.614;2023-02-28T01:34:37;101258.22;;;3.72;59.49
35553;BME280;21656;46.054;13.614;2023-02-28T01:37:02;101242.75;;;3.60;59.83
35553;BME280;21656;46.054;13.614;2023-02-28T01:39:28;101257.91;;;3.58;59.51
35553;BME280;21656;46.054;13.614;2023-02-28T01:41:57;101259.75;;;3.56;59.81
35553;BME280;21656;46.054;13.614;2023-02-28T01:47:06;101258.94;;;3.54;60.29
35553;BME280;21656;46.054;13.614;2023-02-28T01:49:31;101239.28;;;3.58;59.78
35553;BME280;21656;46.054;13.614;2023-02-28T01:51:56;101239.16;;;3.61;59.77
35553;BME280;21656;46.054;13.614;2023-02-28T01:54:24;101239.31;;;3.56;60.17
35553;BME280;21656;46.054;13.614;2023-02-28T01:57:01;101243.78;;;3.56;60.08
35553;BME280;21656;46.054;13.614;2023-02-28T01:59:36;101235.78;;;3.56;60.43
35553;BME280;21656;46.054;13.614;2023-02-28T02:02:05;101233.94;;;3.58;60.01
35553;BME280;21656;46.054;13.614;2023-02-28T02:04:34;101245.59;;;3.55;60.12
35553;BME280;21656;46.054;13.614;2023-02-28T02:07:01;101251.78;;;3.56;60.26
35553;BME280;21656;46.054;13.614;2023-02-28T02:09:26;101241.84;;;3.59;60.17
35553;BME280;21656;46.054;13.614;2023-02-28T02:11:51;101250.09;;;3.53;60.65
35553;BME280;21656;46.054;13.614;2023-02-28T02:17:09;101243.75;;;3.57;60.17
35553;BME280;21656;46.054;13.614;2023-02-28T06:40:26;101300.97;;;3.22;74.22
35553;BME280;21656;46.054;13.614;2023-02-28T06:42:51;101307.16;;;3.22;73.87
35553;BME280;21656;46.054;13.614;2023-02-28T06:45:17;101293.69;;;3.27;74.25
35553;BME280;21656;46.054;13.614;2023-02-28T06:47:42;101307.00;;;3.27;75.28
35553;BME280;21656;46.054;13.614;2023-02-28T06:50:11;101305.94;;;3.31;74.95
35553;BME280;21656;46.054;13.614;2023-02-28T06:52:36;101322.91;;;3.29;75.21
35553;BME280;21656;46.054;13.614;2023-02-28T06:55:03;101311.09;;;3.36;75.03
35553;BME280;21656;46.054;13.614;2023-02-28T06:57:29;101307.53;;;3.37;74.38
35553;BME280;21656;46.054;13.614;2023-02-28T06:59:58;101308.28;;;3.40;73.98
35553;BME280;21656;46.054;13.614;2023-02-28T07:02:23;101311.75;;;3.42;75.21
35553;BME280;21656;46.054;13.614;2023-02-28T07:04:49;101303.78;;;3.42;75.15
35553;BME280;21656;46.054;13.614;2023-02-28T07:07:14;101310.00;;;3.41;75.28
35553;BME280;21656;46.054;13.614;2023-02-28T07:09:39;101319.63;;;3.45;75.01
35553;BME280;21656;46.054;13.614;2023-02-28T07:12:04;101319.63;;;3.45;74.56
35553;BME280;21656;46.054;13.614;2023-02-28T07:14:30;101322.28;;;3.45;74.78
35553;BME280;21656;46.054;13.614;2023-02-28T07:16:55;101311.63;;;3.45;74.58
35553;BME280;21656;46.054;13.614;2023-02-28T07:19:20;101304.47;;;3.47;74.32
35553;BME280;21656;46.054;13.614;2023-02-28T07:21:45;101331.84;;;3.51;73.92
35553;BME280;21656;46.054;13.614;2023-02-28T07:24:11;101295.38;;;3.53;74.48
35553;BME280;21656;46.054;13.614;2023-02-28T07:26:36;101298.00;;;3.55;74.79
35553;BME280;21656;46.054;13.614;2023-02-28T07:29:01;101305.75;;;3.61;75.37
35553;BME280;21656;46.054;13.614;2023-02-28T07:31:27;101302.25;;;3.59;75.25
35553;BME280;21656;46.054;13.614;2023-02-28T07:33:52;101307.28;;;3.66;75.47
35553;BME280;21656;46.054;13.614;2023-02-28T07:36:19;101307.78;;;3.78;74.13
35553;BME280;21656;46.054;13.614;2023-02-28T07:38:45;101313.78;;;3.83;72.90
35553;BME280;21656;46.054;13.614;2023-02-28T07:41:12;101321.25;;;3.97;73.74
35553;BME280;21656;46.054;13.614;2023-02-28T07:43:37;101314.56;;;4.08;71.90
35553;BME280;21656;46.054;13.614;2023-02-28T07:46:07;101318.63;;;4.41;71.15
35553;BME280;21656;46.054;13.614;2023-02-28T07:48:33;101313.78;;;4.71;70.22
35553;BME280;21656;46.054;13.614;2023-02-28T07:50:58;101321.56;;;4.77;68.99
35553;BME280;21656;46.054;13.614;2023-02-28T07:53:24;101331.25;;;4.80;68.03
35553;BME280;21656;46.054;13.614;2023-02-28T07:55:49;101315.41;;;4.75;68.03
35553;BME280;21656;46.054;13.614;2023-02-28T07:58:14;101328.91;;;4.92;67.05
35553;BME280;21656;46.054;13.614;2023-02-28T08:00:40;101315.25;;;5.00;68.08
35553;BME280;21656;46.054;13.614;2023-02-28T08:03:05;101318.56;;;4.85;66.45
35553;BME280;21656;46.054;13.614;2023-02-28T08:05:30;101316.69;;;4.66;67.75
35553;BME280;21656;46.054;13.614;2023-02-28T08:07:55;101318.09;;;4.53;68.08
35553;BME280;21656;46.054;13.614;2023-02-28T08:10:21;101314.19;;;4.62;67.68
35553;BME280;21656;46.054;13.614;2023-02-28T08:12:46;101322.13;;;4.63;68.11
35553;BME280;21656;46.054;13.614;2023-02-28T08:15:11;101329.69;;;4.74;68.21
35553;BME280;21656;46.054;13.614;2023-02-28T08:17:36;101316.78;;;4.63;67.33
35553;BME280;21656;46.054;13.614;2023-02-28T08:20:02;101324.59;;;4.68;67.47
35553;BME280;21656;46.054;13.614;2023-02-28T08:22:29;101331.97;;;4.83;67.60
35553;BME280;21656;46.054;13.614;2023-02-28T08:24:54;101311.69;;;4.79;66.76
35553;BME280;21656;46.054;13.614;2023-02-28T08:27:19;101344.28;;;4.65;67.25
35553;BME280;21656;46.054;13.614;2023-02-28T08:29:45;101315.44;;;4.53;67.04
35553;BME280;21656;46.054;13.614;2023-02-28T08:32:10;101334.06;;;4.54;67.10
35553;BME280;21656;46.054;13.614;2023-02-28T08:34:35;101331.19;;;4.59;68.29
35553;BME280;21656;46.054;13.614;2023-02-28T08:37:00;101340.44;;;4.72;67.20
35553;BME280;21656;46.054;13.614;2023-02-28T08:39:26;101337.13;;;4.66;66.83
35553;BME280;21656;46.054;13.614;2023-02-28T08:41:51;101334.41;;;4.67;66.81
35553;BME280;21656;46.054;13.614;2023-02-28T08:44:16;101357.56;;;4.67;67.64
35553;BME280;21656;46.054;13.614;2023-02-28T08:46:42;101337.22;;;4.64;67.48
35553;BME280;21656;46.054;13.614;2023-02-28T08:49:09;101348.56;;;4.69;67.76
35553;BME280;21656;46.054;13.614;2023-02-28T08:51:35;101353.78;;;4.72;67.22
35553;BME280;21656;46.054;13.614;2023-02-28T08:54:00;101346.88;;;4.89;67.25
35553;BME280;21656;46.054;13.614;2023-02-28T08:56:26;101357.97;;;5.00;66.31
35553;BME280;21656;46.054;13.614;2023-02-28T08:58:52;101363.25;;;5.22;66.53
35553;BME280;21656;46.054;13.614;2023-02-28T09:01:21;101361.56;;;5.40;66.34
35553;BME280;21656;46.054;13.614;2023-02-28T09:03:47;101369.97;;;5.51;64.70
35553;BME280;21656;46.054;13.614;2023-02-28T09:06:14;101364.88;;;5.65;64.04
35553;BME280;21656;46.054;13.614;2023-02-28T09:08:39;101341.91;;;5.61;63.89
35553;BME280;21656;46.054;13.614;2023-02-28T09:11:05;101359.97;;;5.36;64.54
35553;BME280;21656;46.054;13.614;2023-02-28T09:13:30;101305.03;;;5.30;64.69
35553;BME280;21656;46.054;13.614;2023-02-28T09:15:58;101363.03;;;5.47;65.31
35553;BME280;21656;46.054;13.614;2023-02-28T09:18:23;101357.78;;;5.85;64.97
35553;BME280;21656;46.054;13.614;2023-02-28T09:20:49;101348.22;;;5.79;62.84
35553;BME280;21656;46.054;13.614;2023-02-28T09:23:15;101361.38;;;5.84;63.12
35553;BME280;21656;46.054;13.614;2023-02-28T09:25:47;101369.75;;;5.76;63.90
35553;BME280;21656;46.054;13.614;2023-02-28T09:28:13;101374.03;;;5.80;63.62
35553;BME280;21656;46.054;13.614;2023-02-28T09:30:41;101365.06;;;5.81;64.18
35553;BME280;21656;46.054;13.614;2023-02-28T09:33:06;101373.41;;;5.74;63.08
35553;BME280;21656;46.054;13.614;2023-02-28T09:35:32;101370.09;;;5.69;63.73
35553;BME280;21656;46.054;13.614;2023-02-28T09:37:57;101363.22;;;5.63;64.99
35553;BME280;21656;46.054;13.614;2023-02-28T09:40:24;101368.38;;;5.68;64.65
35553;BME280;21656;46.054;13.614;2023-02-28T09:42:51;101371.56;;;5.76;64.67
35553;BME280;21656;46.054;13.614;2023-02-28T09:47:53;101367.00;;;6.36;63.29
35553;BME280;21656;46.054;13.614;2023-02-28T09:50:22;101361.91;;;6.49;62.37
35553;BME280;21656;46.054;13.614;2023-02-28T09:52:54;101358.66;;;6.42;61.25
35553;BME280;21656;46.054;13.614;2023-02-28T09:55:22;101384.75;;;6.37;61.66
35553;BME280;21656;46.054;13.614;2023-02-28T09:57:52;101402.94;;;6.31;61.91
35553;BME280;21656;46.054;13.614;2023-02-28T10:05:24;101391.25;;;6.69;60.98
35553;BME280;21656;46.054;13.614;2023-02-28T10:10:45;101391.56;;;7.17;60.74
35553;BME280;21656;46.054;13.614;2023-02-28T10:13:25;101390.59;;;7.53;58.49
35553;BME280;21656;46.054;13.614;2023-02-28T10:15:56;101380.34;;;7.44;57.48
35553;BME280;21656;46.054;13.614;2023-02-28T10:18:24;101383.25;;;7.39;57.97
35553;BME280;21656;46.054;13.614;2023-02-28T10:20:51;101376.75;;;7.27;57.58
35553;BME280;21656;46.054;13.614;2023-02-28T10:26:00;101386.31;;;7.31;58.42
35553;BME280;21656;46.054;13.614;2023-02-28T10:28:26;101392.47;;;7.33;58.34
35553;BME280;21656;46.054;13.614;2023-02-28T10:30:53;101376.72;;;7.45;57.49
35553;BME280;21656;46.054;13.614;2023-02-28T10:33:30;101398.78;;;7.50;56.59
35553;BME280;21656;46.054;13.614;2023-02-28T10:35:56;101402.38;;;7.66;57.61
35553;BME280;21656;46.054;13.614;2023-02-28T10:38:25;101395.06;;;8.03;56.61
35553;BME280;21656;46.054;13.614;2023-02-28T10:40:51;101395.16;;;8.17;55.52
35553;BME280;21656;46.054;13.614;2023-02-28T10:45:55;101395.88;;;8.21;55.55
35553;BME280;21656;46.054;13.614;2023-02-28T10:55:57;101370.00;;;8.36;52.90
35553;BME280;21656;46.054;13.614;2023-02-28T10:58:27;101376.31;;;8.35;53.62
35553;BME280;21656;46.054;13.614;2023-02-28T11:00:53;101369.31;;;8.48;53.77
35553;BME280;21656;46.054;13.614;2023-02-28T11:03:32;101370.03;;;8.52;52.76
35553;BME280;21656;46.054;13.614;2023-02-28T11:05:58;101361.91;;;8.83;52.00
35553;BME280;21656;46.054;13.614;2023-02-28T11:08:28;101355.59;;;8.84;52.50
35553;BME280;21656;46.054;13.614;2023-02-28T11:10:54;101357.06;;;8.90;52.32
35553;BME280;21656;46.054;13.614;2023-02-28T11:13:21;101344.69;;;9.18;51.40
35553;BME280;21656;46.054;13.614;2023-02-28T11:15:54;101344.84;;;9.45;50.65
35553;BME280;21656;46.054;13.614;2023-02-28T11:20:49;101351.22;;;8.98;50.09
35553;BME280;21656;46.054;13.614;2023-02-28T11:23:15;101337.47;;;8.88;50.52
35553;BME280;21656;46.054;13.614;2023-02-28T11:25:46;101339.91;;;8.93;50.72
35553;BME280;21656;46.054;13.614;2023-02-28T11:31:13;101335.97;;;8.98;51.04
35553;BME280;21656;46.054;13.614;2023-02-28T11:33:41;101317.59;;;9.06;49.88
35553;BME280;21656;46.054;13.614;2023-02-28T11:36:26;101328.28;;;9.37;49.66
35553;BME280;21656;46.054;13.614;2023-02-28T11:38:52;101322.78;;;9.24;49.50
35553;BME280;21656;46.054;13.614;2023-02-28T11:46:37;101299.38;;;9.11;50.09
35553;BME280;21656;46.054;13.614;2023-02-28T11:53:59;101299.84;;;9.90;48.06
35553;BME280;21656;46.054;13.614;2023-02-28T12:11:59;101292.19;;;10.25;45.46
35553;BME280;21656;46.054;13.614;2023-02-28T12:19:39;101275.56;;;11.00;44.40
35553;BME280;21656;46.054;13.614;2023-02-28T12:22:22;101277.91;;;10.79;43.86
35553;BME280;21656;46.054;13.614;2023-02-28T12:27:17;101269.38;;;10.45;44.53
35553;BME280;21656;46.054;13.614;2023-02-28T12:29:52;101260.78;;;10.53;44.27
35553;BME280;21656;46.054;13.614;2023-02-28T12:32:26;101256.28;;;10.53;43.81
35553;BME280;21656;46.054;13.614;2023-02-28T12:34:55;101255.59;;;10.50;43.57
35553;BME280;21656;46.054;13.614;2023-02-28T12:37:25;101252.78;;;10.38;43.90
35553;BME280;21656;46.054;13.614;2023-02-28T12:39:53;101247.06;;;10.16;43.84
35553;BME280;21656;46.054;13.614;2023-02-28T12:42:24;101238.09;;;10.30;43.83
35553;BME280;21656;46.054;13.614;2023-02-28T12:44:54;101244.06;;;10.88;44.21
35553;BME280;21656;46.054;13.614;2023-02-28T12:47:21;101245.28;;;11.09;42.76
35553;BME280;21656;46.054;13.614;2023-02-28T12:50:03;101234.38;;;10.98;43.08
35553;BME280;21656;46.054;13.614;2023-02-28T13:10:11;101210.03;;;11.75;40.59
35553;BME280;21656;46.054;13.614;2023-02-28T13:12:46;101215.25;;;11.65;41.49
35553;BME280;21656;46.054;13.614;2023-02-28T13:17:38;101200.16;;;11.37;41.06
35553;BME280;21656;46.054;13.614;2023-02-28T13:20:04;101200.59;;;11.43;41.78
35553;BME280;21656;46.054;13.614;2023-02-28T13:25:00;101199.09;;;11.14;41.35
35553;BME280;21656;46.054;13.614;2023-02-28T13:27:38;101199.41;;;10.71;41.65
35553;BME280;21656;46.054;13.614;2023-02-28T13:32:54;101187.41;;;10.22;43.05
35553;BME280;21656;46.054;13.614;2023-02-28T13:35:34;101190.19;;;10.08;43.95
35553;BME280;21656;46.054;13.614;2023-02-28T13:38:09;101193.28;;;10.02;44.50
35553;BME280;21656;46.054;13.614;2023-02-28T13:40:38;101184.84;;;9.93;44.54
35553;BME280;21656;46.054;13.614;2023-02-28T13:43:06;101173.84;;;9.69;44.75
35553;BME280;21656;46.054;13.614;2023-02-28T13:45:32;101171.66;;;9.62;45.39
35553;BME280;21656;46.054;13.614;2023-02-28T13:48:04;101177.44;;;9.70;46.00
35553;BME280;21656;46.054;13.614;2023-02-28T13:58:28;101155.13;;;9.12;47.00
35553;BME280;21656;46.054;13.614;2023-02-28T14:06:15;101160.91;;;8.47;47.14
35553;BME280;21656;46.054;13.614;2023-02-28T14:11:38;101160.47;;;8.83;47.49
35553;BME280;21656;46.054;13.614;2023-02-28T14:14:04;101160.38;;;8.85;47.02
35553;BME280;21656;46.054;13.614;2023-02-28T14:16:37;101167.47;;;8.86;47.79
35553;BME280;21656;46.054;13.614;2023-02-28T14:21:36;101185.34;;;8.87;47.58
35553;BME280;21656;46.054;13.614;2023-02-28T14:37:03;101156.03;;;8.54;47.93
35553;BME280;21656;46.054;13.614;2023-02-28T14:39:29;101142.50;;;8.55;47.80
35553;BME280;21656;46.054;13.614;2023-02-28T14:41:58;101149.50;;;8.28;48.00
35553;BME280;21656;46.054;13.614;2023-02-28T14:44:29;101147.94;;;8.39;48.95
35553;BME280;21656;46.054;13.614;2023-02-28T14:46:56;101148.38;;;8.32;49.13
35553;BME280;21656;46.054;13.614;2023-02-28T14:49:29;101159.81;;;8.19;48.90
35553;BME280;21656;46.054;13.614;2023-02-28T14:52:02;101154.44;;;8.19;49.70
35553;BME280;21656;46.054;13.614;2023-02-28T14:54:28;101147.19;;;8.21;49.66
35553;BME280;21656;46.054;13.614;2023-02-28T14:56:53;101153.97;;;8.13;49.55
35553;BME280;21656;46.054;13.614;2023-02-28T15:01:50;101149.28;;;8.16;49.70
35553;BME280;21656;46.054;13.614;2023-02-28T15:04:20;101152.47;;;8.23;50.22
35553;BME280;21656;46.054;13.614;2023-02-28T15:07:06;101153.22;;;8.25;49.31
35553;BME280;21656;46.054;13.614;2023-02-28T15:09:31;101146.78;;;7.97;49.81
35553;BME280;21656;46.054;13.614;2023-02-28T15:11:57;101159.88;;;7.72;50.15
35553;BME280;21656;46.054;13.614;2023-02-28T15:14:22;101166.38;;;7.68;51.16
35553;BME280;21656;46.054;13.614;2023-02-28T15:16:50;101160.84;;;7.55;51.77
35553;BME280;21656;46.054;13.614;2023-02-28T15:19:25;101147.72;;;7.50;51.55
35553;BME280;21656;46.054;13.614;2023-02-28T15:21:54;101155.81;;;7.49;51.66
35553;BME280;21656;46.054;13.614;2023-02-28T15:26:59;101145.97;;;7.49;51.73
35553;BME280;21656;46.054;13.614;2023-02-28T15:29:25;101141.88;;;7.26;52.00
35553;BME280;21656;46.054;13.614;2023-02-28T15:32:02;101144.13;;;7.34;52.99
35553;BME280;21656;46.054;13.614;2023-02-28T15:36:53;101139.81;;;7.31;52.52
35553;BME280;21656;46.054;13.614;2023-02-28T15:39:19;101136.38;;;7.29;52.58
35553;BME280;21656;46.054;13.614;2023-02-28T15:41:45;101140.41;;;7.21;52.64
35553;BME280;21656;46.054;13.614;2023-02-28T15:44:27;101136.59;;;7.09;53.28
35553;BME280;21656;46.054;13.614;2023-02-28T15:49:20;101137.00;;;7.01;53.51
35553;BME280;21656;46.054;13.614;2023-02-28T15:51:46;101134.59;;;6.97;53.31
35553;BME280;21656;46.054;13.614;2023-02-28T15:54:19;101137.78;;;6.87;53.63
35553;BME280;21656;46.054;13.614;2023-02-28T15:56:45;101133.19;;;6.89;53.87
35553;BME280;21656;46.054;13.614;2023-02-28T15:59:15;101129.91;;;6.84;53.60
35553;BME280;21656;46.054;13.614;2023-02-28T16:01:41;101146.91;;;6.83;54.53
35553;BME280;21656;46.054;13.614;2023-02-28T16:04:17;101144.22;;;6.83;54.59
35553;BME280;21656;46.054;13.614;2023-02-28T16:09:16;101131.00;;;6.80;54.13
35553;BME280;21656;46.054;13.614;2023-02-28T16:11:45;101130.63;;;6.70;54.90
35553;BME280;21656;46.054;13.614;2023-02-28T16:14:15;101145.44;;;6.60;54.72
35553;BME280;21656;46.054;13.614;2023-02-28T16:16:42;101150.97;;;6.57;54.64
35553;BME280;21656;46.054;13.614;2023-02-28T16:19:08;101137.53;;;6.59;55.78
35553;BME280;21656;46.054;13.614;2023-02-28T16:21:33;101138.44;;;6.58;55.59
35553;BME280;21656;46.054;13.614;2023-02-28T16:23:58;101121.53;;;6.57;55.48
35553;BME280;21656;46.054;13.614;2023-02-28T16:26:23;101134.44;;;6.49;55.69
35553;BME280;21656;46.054;13.614;2023-02-28T16:28:50;101131.22;;;6.42;56.07
35553;BME280;21656;46.054;13.614;2023-02-28T16:31:16;101138.78;;;6.34;56.30
35553;BME280;21656;46.054;13.614;2023-02-28T16:33:42;101129.91;;;6.34;56.60
35553;BME280;21656;46.054;13.614;2023-02-28T16:36:09;101134.47;;;6.32;56.75
35553;BME280;21656;46.054;13.614;2023-02-28T16:38:34;101136.91;;;6.19;56.82
35553;BME280;21656;46.054;13.614;2023-02-28T16:41:00;101125.81;;;6.09;57.34
35553;BME280;21656;46.054;13.614;2023-02-28T16:43:25;101140.97;;;6.08;57.26
35553;BME280;21656;46.054;13.614;2023-02-28T16:45:55;101137.34;;;6.10;57.44
35553;BME280;21656;46.054;13.614;2023-02-28T16:48:25;101133.03;;;6.07;57.38
35553;BME280;21656;46.054;13.614;2023-02-28T16:50:50;101137.50;;;6.06;57.96
35553;BME280;21656;46.054;13.614;2023-02-28T16:53:16;101138.75;;;5.99;57.78
35553;BME280;21656;46.054;13.614;2023-02-28T16:55:41;101154.97;;;5.96;57.90
35553;BME280;21656;46.054;13.614;2023-02-28T16:58:06;101150.63;;;5.94;58.12
35553;BME280;21656;46.054;13.614;2023-02-28T17:00:32;101142.91;;;5.88;58.39
35553;BME280;21656;46.054;13.614;2023-02-28T17:02:57;101142.31;;;5.81;58.55
35553;BME280;21656;46.054;13.614;2023-02-28T17:05:24;101155.13;;;5.74;59.18
35553;BME280;21656;46.054;13.614;2023-02-28T17:07:50;101161.09;;;5.79;59.24
35553;BME280;21656;46.054;13.614;2023-02-28T17:10:20;101154.41;;;5.71;59.68
35553;BME280;21656;46.054;13.614;2023-02-28T17:12:45;101162.75;;;5.82;59.89
35553;BME280;21656;46.054;13.614;2023-02-28T17:15:11;101167.81;;;5.88;59.73
35553;BME280;21656;46.054;13.614;2023-02-28T17:17:37;101159.75;;;5.71;59.60
35553;BME280;21656;46.054;13.614;2023-02-28T17:20:03;101155.06;;;5.76;59.63
35553;BME280;21656;46.054;13.614;2023-02-28T17:22:28;101168.34;;;5.77;59.57
35553;BME280;21656;46.054;13.614;2023-02-28T17:24:53;101152.59;;;5.71;60.08
35553;BME280;21656;46.054;13.614;2023-02-28T17:27:22;101155.63;;;5.63;60.32
35553;BME280;21656;46.054;13.614;2023-02-28T17:29:48;101162.06;;;5.59;60.86
35553;BME280;21656;46.054;13.614;2023-02-28T17:32:13;101168.28;;;5.60;60.54
35553;BME280;21656;46.054;13.614;2023-02-28T17:34:38;101176.59;;;5.54;61.28
35553;BME280;21656;46.054;13.614;2023-02-28T17:37:03;101175.50;;;5.58;61.07
35553;BME280;21656;46.054;13.614;2023-02-28T17:39:28;101176.44;;;5.57;61.49
35553;BME280;21656;46.054;13.614;2023-02-28T17:41:54;101168.66;;;5.52;61.15
35553;BME280;21656;46.054;13.614;2023-02-28T17:44:20;101175.78;;;5.52;60.99
35553;BME280;21656;46.054;13.614;2023-02-28T17:46:46;101159.69;;;5.53;60.91
35553;BME280;21656;46.054;13.614;2023-02-28T17:49:11;101167.66;;;5.55;61.32
35553;BME280;21656;46.054;13.614;2023-02-28T17:51:37;101168.94;;;5.46;61.60
35553;BME280;21656;46.054;13.614;2023-02-28T17:54:02;101175.03;;;5.50;61.56
35553;BME280;21656;46.054;13.614;2023-02-28T17:56:27;101175.06;;;5.48;61.48
35553;BME280;21656;46.054;13.614;2023-02-28T17:58:53;101181.94;;;5.54;61.89
35553;BME280;21656;46.054;13.614;2023-02-28T18:01:19;101170.69;;;5.47;61.59
35553;BME280;21656;46.054;13.614;2023-02-28T18:03:45;101165.34;;;5.47;61.69
35553;BME280;21656;46.054;13.614;2023-02-28T18:06:24;101196.94;;;5.56;61.88
35553;BME280;21656;46.054;13.614;2023-02-28T18:08:52;101181.88;;;5.55;61.59
35553;BME280;21656;46.054;13.614;2023-02-28T18:11:18;101167.78;;;5.52;61.78
35553;BME280;21656;46.054;13.614;2023-02-28T18:13:44;101197.25;;;5.50;61.31
35553;BME280;21656;46.054;13.614;2023-02-28T18:16:09;101190.47;;;5.43;61.88
35553;BME280;21656;46.054;13.614;2023-02-28T18:18:35;101186.84;;;5.44;61.30
35553;BME280;21656;46.054;13.614;2023-02-28T18:21:03;101185.97;;;5.43;62.08
35553;BME280;21656;46.054;13.614;2023-02-28T18:23:29;101191.31;;;5.43;61.95
35553;BME280;21656;46.054;13.614;2023-02-28T18:25:54;101179.78;;;5.43;61.87
35553;BME280;21656;46.054;13.614;2023-02-28T18:28:19;101179.47;;;5.49;61.73
35553;BME280;21656;46.054;13.614;2023-02-28T18:30:45;101209.09;;;5.45;61.97
35553;BME280;21656;46.054;13.614;2023-02-28T18:33:10;101206.19;;;5.49;61.89
35553;BME280;21656;46.054;13.614;2023-02-28T18:35:35;101213.50;;;5.46;61.55
35553;BME280;21656;46.054;13.614;2023-02-28T18:38:08;101200.13;;;5.46;61.69
35553;BME280;21656;46.054;13.614;2023-02-28T18:40:34;101199.06;;;5.50;62.38
35553;BME280;21656;46.054;13.614;2023-02-28T18:43:00;101185.81;;;5.47;62.00
35553;BME280;21656;46.054;13.614;2023-02-28T18:45:25;101200.63;;;5.54;61.90
35553;BME280;21656;46.054;13.614;2023-02-28T18:47:50;101187.78;;;5.43;61.61
35553;BME280;21656;46.054;13.614;2023-02-28T18:50:16;101196.88;;;5.39;62.50
35553;BME280;21656;46.054;13.614;2023-02-28T18:52:41;101197.97;;;5.35;61.95
35553;BME280;21656;46.054;13.614;2023-02-28T18:55:06;101199.63;;;5.37;61.81
35553;BME280;21656;46.054;13.614;2023-02-28T18:57:33;101214.66;;;5.40;61.75
35553;BME280;21656;46.054;13.614;2023-02-28T18:59:58;101214.91;;;5.34;62.58
35553;BME280;21656;46.054;13.614;2023-02-28T19:02:23;101230.19;;;5.32;62.36
35553;BME280;21656;46.054;13.614;2023-02-28T19:04:49;101240.06;;;5.30;63.11
35553;BME280;21656;46.054;13.614;2023-02-28T19:07:14;101242.72;;;5.30;62.92
35553;BME280;21656;46.054;13.614;2023-02-28T19:09:39;101248.72;;;5.35;62.83
35553;BME280;21656;46.054;13.614;2023-02-28T19:12:04;101252.31;;;5.34;62.94
35553;BME280;21656;46.054;13.614;2023-02-28T19:14:30;101247.78;;;5.36;63.06
35553;BME280;21656;46.054;13.614;2023-02-28T19:16:55;101253.22;;;5.34;62.44
35553;BME280;21656;46.054;13.614;2023-02-28T19:19:20;101255.78;;;5.36;62.36
35553;BME280;21656;46.054;13.614;2023-02-28T19:21:45;101265.41;;;5.40;62.61
35553;BME280;21656;46.054;13.614;2023-02-28T19:24:11;101267.47;;;5.33;62.97
35553;BME280;21656;46.054;13.614;2023-02-28T19:26:36;101253.41;;;5.30;63.18
35553;BME280;21656;46.054;13.614;2023-02-28T19:29:02;101264.09;;;5.30;62.96